﻿<?xml version="1.0" encoding="utf-8"?><gpx creator="Garmin Desktop App" version="1.1" xsi:schemaLocation="http://www.topografix.com/GPX/1/1 http://www.topografix.com/GPX/1/1/gpx.xsd http://www.garmin.com/xmlschemas/WaypointExtension/v1 http://www8.garmin.com/xmlschemas/WaypointExtensionv1.xsd http://www.garmin.com/xmlschemas/TrackPointExtension/v1 http://www.garmin.com/xmlschemas/TrackPointExtensionv1.xsd http://www.garmin.com/xmlschemas/GpxExtensions/v3 http://www8.garmin.com/xmlschemas/GpxExtensionsv3.xsd http://www.garmin.com/xmlschemas/ActivityExtension/v1 http://www8.garmin.com/xmlschemas/ActivityExtensionv1.xsd http://www.garmin.com/xmlschemas/AdventuresExtensions/v1 http://www8.garmin.com/xmlschemas/AdventuresExtensionv1.xsd http://www.garmin.com/xmlschemas/PressureExtension/v1 http://www.garmin.com/xmlschemas/PressureExtensionv1.xsd http://www.garmin.com/xmlschemas/TripExtensions/v1 http://www.garmin.com/xmlschemas/TripExtensionsv1.xsd http://www.garmin.com/xmlschemas/TripMetaDataExtensions/v1 http://www.garmin.com/xmlschemas/TripMetaDataExtensionsv1.xsd http://www.garmin.com/xmlschemas/ViaPointTransportationModeExtensions/v1 http://www.garmin.com/xmlschemas/ViaPointTransportationModeExtensionsv1.xsd http://www.garmin.com/xmlschemas/CreationTimeExtension/v1 http://www.garmin.com/xmlschemas/CreationTimeExtensionsv1.xsd http://www.garmin.com/xmlschemas/AccelerationExtension/v1 http://www.garmin.com/xmlschemas/AccelerationExtensionv1.xsd http://www.garmin.com/xmlschemas/PowerExtension/v1 http://www.garmin.com/xmlschemas/PowerExtensionv1.xsd http://www.garmin.com/xmlschemas/VideoExtension/v1 http://www.garmin.com/xmlschemas/VideoExtensionv1.xsd" xmlns="http://www.topografix.com/GPX/1/1" xmlns:xsi="http://www.w3.org/2001/XMLSchema-instance" xmlns:wptx1="http://www.garmin.com/xmlschemas/WaypointExtension/v1" xmlns:gpxtrx="http://www.garmin.com/xmlschemas/GpxExtensions/v3" xmlns:gpxtpx="http://www.garmin.com/xmlschemas/TrackPointExtension/v1" xmlns:gpxx="http://www.garmin.com/xmlschemas/GpxExtensions/v3" xmlns:trp="http://www.garmin.com/xmlschemas/TripExtensions/v1" xmlns:adv="http://www.garmin.com/xmlschemas/AdventuresExtensions/v1" xmlns:prs="http://www.garmin.com/xmlschemas/PressureExtension/v1" xmlns:tmd="http://www.garmin.com/xmlschemas/TripMetaDataExtensions/v1" xmlns:vptm="http://www.garmin.com/xmlschemas/ViaPointTransportationModeExtensions/v1" xmlns:ctx="http://www.garmin.com/xmlschemas/CreationTimeExtension/v1" xmlns:gpxacc="http://www.garmin.com/xmlschemas/AccelerationExtension/v1" xmlns:gpxpx="http://www.garmin.com/xmlschemas/PowerExtension/v1" xmlns:vidx1="http://www.garmin.com/xmlschemas/VideoExtension/v1">

  <metadata>
    <link href="http://www.garmin.com">
      <text>Garmin International</text>
    </link>
    <time>2021-01-25T14:24:55Z</time>
    <bounds maxlat="45.624676002189517" maxlon="7.053802013397217" minlat="45.611952021718025" minlon="7.023418033495545" />
  </metadata>

  <trk>
    <name>rifugio-degli-angeli</name>
    <extensions>
      <gpxx:TrackExtension>
        <gpxx:DisplayColor>Yellow</gpxx:DisplayColor>
      </gpxx:TrackExtension>
    </extensions>
    <trkseg>
      <trkpt lat="45.616050017997622" lon="7.053416026756167">
        <ele>1866.3</ele>
        <time>2013-07-28T07:14:15Z</time>
      </trkpt>
      <trkpt lat="45.616050017997622" lon="7.053416026756167">
        <ele>1866.3</ele>
        <time>2013-07-28T07:14:15Z</time>
      </trkpt>
      <trkpt lat="45.616050017997622" lon="7.053416026756167">
        <ele>1866.3</ele>
        <time>2013-07-28T07:14:15Z</time>
      </trkpt>
      <trkpt lat="45.616050017997622" lon="7.053416026756167">
        <ele>1866.3</ele>
        <time>2013-07-28T07:14:15Z</time>
      </trkpt>
      <trkpt lat="45.616114977747202" lon="7.053351989015937">
        <ele>1869.8</ele>
        <time>2013-07-28T07:14:33Z</time>
      </trkpt>
      <trkpt lat="45.616222014650702" lon="7.053459025919437">
        <ele>1866.9000000000001</ele>
        <time>2013-07-28T07:15:04Z</time>
      </trkpt>
      <trkpt lat="45.616414966061711" lon="7.053588023409247">
        <ele>1865.7</ele>
        <time>2013-07-28T07:15:54Z</time>
      </trkpt>
      <trkpt lat="45.616672961041331" lon="7.053716015070677">
        <ele>1866.0999999999999</ele>
        <time>2013-07-28T07:16:58Z</time>
      </trkpt>
      <trkpt lat="45.616865996271372" lon="7.053802013397217">
        <ele>1867</ele>
        <time>2013-07-28T07:17:46Z</time>
      </trkpt>
      <trkpt lat="45.616908995434642" lon="7.053759014233947">
        <ele>1869.7</ele>
        <time>2013-07-28T07:17:58Z</time>
      </trkpt>
      <trkpt lat="45.616887034848332" lon="7.053673015907407">
        <ele>1873</ele>
        <time>2013-07-28T07:18:13Z</time>
      </trkpt>
      <trkpt lat="45.616672961041331" lon="7.053479980677366">
        <ele>1876.5</ele>
        <time>2013-07-28T07:19:13Z</time>
      </trkpt>
      <trkpt lat="45.616394011303782" lon="7.053116038441658">
        <ele>1885.3</ele>
        <time>2013-07-28T07:20:42Z</time>
      </trkpt>
      <trkpt lat="45.616136016324162" lon="7.052814960479736">
        <ele>1893.5</ele>
        <time>2013-07-28T07:22:00Z</time>
      </trkpt>
      <trkpt lat="45.615813983604312" lon="7.052536010742188">
        <ele>1900.4000000000001</ele>
        <time>2013-07-28T07:23:29Z</time>
      </trkpt>
      <trkpt lat="45.615556994453073" lon="7.052365019917488">
        <ele>1901.0999999999999</ele>
        <time>2013-07-28T07:24:36Z</time>
      </trkpt>
      <trkpt lat="45.615320960059762" lon="7.052256977185607">
        <ele>1899.5</ele>
        <time>2013-07-28T07:25:34Z</time>
      </trkpt>
      <trkpt lat="45.615191962569952" lon="7.052193023264408">
        <ele>1899.3</ele>
        <time>2013-07-28T07:26:06Z</time>
      </trkpt>
      <trkpt lat="45.615128008648753" lon="7.052107024937868">
        <ele>1901</ele>
        <time>2013-07-28T07:26:27Z</time>
      </trkpt>
      <trkpt lat="45.615128008648753" lon="7.051999988034368">
        <ele>1904.5999999999999</ele>
        <time>2013-07-28T07:26:45Z</time>
      </trkpt>
      <trkpt lat="45.615214006975293" lon="7.051978027448058">
        <ele>1907.3</ele>
        <time>2013-07-28T07:27:05Z</time>
      </trkpt>
      <trkpt lat="45.615513995289803" lon="7.052084980532527">
        <ele>1911.2</ele>
        <time>2013-07-28T07:28:18Z</time>
      </trkpt>
      <trkpt lat="45.615579038858414" lon="7.052064025774598">
        <ele>1914.2</ele>
        <time>2013-07-28T07:28:34Z</time>
      </trkpt>
      <trkpt lat="45.615579038858414" lon="7.052064025774598">
        <ele>1914.2</ele>
        <time>2013-07-28T07:28:34Z</time>
      </trkpt>
      <trkpt lat="45.615579038858414" lon="7.051999988034368">
        <ele>1916.5999999999999</ele>
        <time>2013-07-28T07:28:44Z</time>
      </trkpt>
      <trkpt lat="45.615406958386302" lon="7.051827991381288">
        <ele>1917.3</ele>
        <time>2013-07-28T07:29:34Z</time>
      </trkpt>
      <trkpt lat="45.615191962569952" lon="7.051612995564938">
        <ele>1919.4000000000001</ele>
        <time>2013-07-28T07:30:35Z</time>
      </trkpt>
      <trkpt lat="45.614999011158943" lon="7.051356006413698">
        <ele>1922.5</ele>
        <time>2013-07-28T07:31:37Z</time>
      </trkpt>
      <trkpt lat="45.614848975092173" lon="7.051205970346928">
        <ele>1922.5999999999999</ele>
        <time>2013-07-28T07:32:21Z</time>
      </trkpt>
      <trkpt lat="45.614613024517894" lon="7.051098011434078">
        <ele>1918.5999999999999</ele>
        <time>2013-07-28T07:33:19Z</time>
      </trkpt>
      <trkpt lat="45.614504981786013" lon="7.051013018935919">
        <ele>1918.8</ele>
        <time>2013-07-28T07:33:48Z</time>
      </trkpt>
      <trkpt lat="45.614441027864814" lon="7.050841022282839">
        <ele>1923.0999999999999</ele>
        <time>2013-07-28T07:34:20Z</time>
      </trkpt>
      <trkpt lat="45.614333990961313" lon="7.050518989562988">
        <ele>1932</ele>
        <time>2013-07-28T07:35:19Z</time>
      </trkpt>
      <trkpt lat="45.614098040387034" lon="7.050110958516598">
        <ele>1940.9000000000001</ele>
        <time>2013-07-28T07:36:46Z</time>
      </trkpt>
      <trkpt lat="45.613882960751653" lon="7.049896968528628">
        <ele>1942.4000000000001</ele>
        <time>2013-07-28T07:37:47Z</time>
      </trkpt>
      <trkpt lat="45.613776007667184" lon="7.04974701628089">
        <ele>1943.7</ele>
        <time>2013-07-28T07:38:23Z</time>
      </trkpt>
      <trkpt lat="45.613776007667184" lon="7.04974701628089">
        <ele>1943.7</ele>
        <time>2013-07-28T07:38:23Z</time>
      </trkpt>
      <trkpt lat="45.613733008503914" lon="7.049595974385738">
        <ele>1946.4000000000001</ele>
        <time>2013-07-28T07:38:50Z</time>
      </trkpt>
      <trkpt lat="45.613668970763683" lon="7.04940302297473">
        <ele>1950.7</ele>
        <time>2013-07-28T07:39:25Z</time>
      </trkpt>
      <trkpt lat="45.613582972437143" lon="7.0492750313133">
        <ele>1952.8</ele>
        <time>2013-07-28T07:39:54Z</time>
      </trkpt>
      <trkpt lat="45.613539973273873" lon="7.04918903298676">
        <ele>1954.5</ele>
        <time>2013-07-28T07:40:11Z</time>
      </trkpt>
      <trkpt lat="45.613476019352674" lon="7.04903899691999">
        <ele>1957.5</ele>
        <time>2013-07-28T07:40:40Z</time>
      </trkpt>
      <trkpt lat="45.613410975784063" lon="7.04886700026691">
        <ele>1961.0999999999999</ele>
        <time>2013-07-28T07:41:13Z</time>
      </trkpt>
      <trkpt lat="45.613390021026134" lon="7.048802962526679">
        <ele>1962.5</ele>
        <time>2013-07-28T07:41:24Z</time>
      </trkpt>
      <trkpt lat="45.613281978294253" lon="7.04869500361383">
        <ele>1964.3</ele>
        <time>2013-07-28T07:41:55Z</time>
      </trkpt>
      <trkpt lat="45.613218024373055" lon="7.04860900528729">
        <ele>1966.8</ele>
        <time>2013-07-28T07:42:16Z</time>
      </trkpt>
      <trkpt lat="45.613281978294253" lon="7.04852401278913">
        <ele>1971</ele>
        <time>2013-07-28T07:42:37Z</time>
      </trkpt>
      <trkpt lat="45.613324977457523" lon="7.048458969220519">
        <ele>1974.0999999999999</ele>
        <time>2013-07-28T07:42:51Z</time>
      </trkpt>
      <trkpt lat="45.613410975784063" lon="7.04839501529932">
        <ele>1977.5</ele>
        <time>2013-07-28T07:43:14Z</time>
      </trkpt>
      <trkpt lat="45.613476019352674" lon="7.04835201613605">
        <ele>1979.7</ele>
        <time>2013-07-28T07:43:31Z</time>
      </trkpt>
      <trkpt lat="45.613433020189404" lon="7.048243973404169">
        <ele>1983.2</ele>
        <time>2013-07-28T07:43:51Z</time>
      </trkpt>
      <trkpt lat="45.613410975784063" lon="7.04811598174274">
        <ele>1987.8</ele>
        <time>2013-07-28T07:44:13Z</time>
      </trkpt>
      <trkpt lat="45.613367976620793" lon="7.048052027821541">
        <ele>1990</ele>
        <time>2013-07-28T07:44:28Z</time>
      </trkpt>
      <trkpt lat="45.613324977457523" lon="7.04798698425293">
        <ele>1992.3</ele>
        <time>2013-07-28T07:44:42Z</time>
      </trkpt>
      <trkpt lat="45.613281978294253" lon="7.04785798676312">
        <ele>1996.3</ele>
        <time>2013-07-28T07:45:06Z</time>
      </trkpt>
      <trkpt lat="45.613218024373055" lon="7.047665035352111">
        <ele>2000.8</ele>
        <time>2013-07-28T07:45:41Z</time>
      </trkpt>
      <trkpt lat="45.613218024373055" lon="7.047665035352111">
        <ele>2000.8</ele>
        <time>2013-07-28T07:45:41Z</time>
      </trkpt>
      <trkpt lat="45.613239984959364" lon="7.047579037025571">
        <ele>2002.9000000000001</ele>
        <time>2013-07-28T07:45:56Z</time>
      </trkpt>
      <trkpt lat="45.613218024373055" lon="7.04751499928534">
        <ele>2004.4000000000001</ele>
        <time>2013-07-28T07:46:08Z</time>
      </trkpt>
      <trkpt lat="45.613196985796094" lon="7.0474290009588">
        <ele>2006.4000000000001</ele>
        <time>2013-07-28T07:46:23Z</time>
      </trkpt>
      <trkpt lat="45.613196985796094" lon="7.04734300263226">
        <ele>2008.4000000000001</ele>
        <time>2013-07-28T07:46:37Z</time>
      </trkpt>
      <trkpt lat="45.613218024373055" lon="7.04725700430572">
        <ele>2010.5</ele>
        <time>2013-07-28T07:46:52Z</time>
      </trkpt>
      <trkpt lat="45.613218024373055" lon="7.047043014317751">
        <ele>2015.5</ele>
        <time>2013-07-28T07:47:27Z</time>
      </trkpt>
      <trkpt lat="45.613239984959364" lon="7.046914016827941">
        <ele>2018.3</ele>
        <time>2013-07-28T07:47:49Z</time>
      </trkpt>
      <trkpt lat="45.613239984959364" lon="7.04680697992444">
        <ele>2020.5</ele>
        <time>2013-07-28T07:48:07Z</time>
      </trkpt>
      <trkpt lat="45.613239984959364" lon="7.046743026003242">
        <ele>2021.8</ele>
        <time>2013-07-28T07:48:17Z</time>
      </trkpt>
      <trkpt lat="45.613175025209785" lon="7.046614028513432">
        <ele>2023.5999999999999</ele>
        <time>2013-07-28T07:48:43Z</time>
      </trkpt>
      <trkpt lat="45.613175025209785" lon="7.046614028513432">
        <ele>2023.5999999999999</ele>
        <time>2013-07-28T07:48:43Z</time>
      </trkpt>
      <trkpt lat="45.613046027719975" lon="7.04667798243463">
        <ele>2020.9000000000001</ele>
        <time>2013-07-28T07:49:16Z</time>
      </trkpt>
      <trkpt lat="45.612961035221815" lon="7.04663498327136">
        <ele>2020.5</ele>
        <time>2013-07-28T07:49:37Z</time>
      </trkpt>
      <trkpt lat="45.612875036895275" lon="7.046506991609931">
        <ele>2021.5</ele>
        <time>2013-07-28T07:50:06Z</time>
      </trkpt>
      <trkpt lat="45.612809993326664" lon="7.046356033533812">
        <ele>2023.4000000000001</ele>
        <time>2013-07-28T07:50:35Z</time>
      </trkpt>
      <trkpt lat="45.612766994163394" lon="7.046141959726811">
        <ele>2026.5999999999999</ele>
        <time>2013-07-28T07:51:12Z</time>
      </trkpt>
      <trkpt lat="45.612725000828505" lon="7.045883964747191">
        <ele>2030.2</ele>
        <time>2013-07-28T07:51:56Z</time>
      </trkpt>
      <trkpt lat="45.612467005848885" lon="7.045282982289791">
        <ele>2035.4000000000001</ele>
        <time>2013-07-28T07:53:52Z</time>
      </trkpt>
      <trkpt lat="45.612445967271924" lon="7.045176029205322">
        <ele>2036.2</ele>
        <time>2013-07-28T07:54:10Z</time>
      </trkpt>
      <trkpt lat="45.612488966435194" lon="7.044982993975282">
        <ele>2038.7</ele>
        <time>2013-07-28T07:54:43Z</time>
      </trkpt>
      <trkpt lat="45.612424006685615" lon="7.044962039217353">
        <ele>2037.8</ele>
        <time>2013-07-28T07:54:59Z</time>
      </trkpt>
      <trkpt lat="45.612273970618844" lon="7.045047031715512">
        <ele>2034.5</ele>
        <time>2013-07-28T07:55:37Z</time>
      </trkpt>
      <trkpt lat="45.612187972292304" lon="7.044919040054083">
        <ele>2033.8</ele>
        <time>2013-07-28T07:56:06Z</time>
      </trkpt>
      <trkpt lat="45.612187972292304" lon="7.044919040054083">
        <ele>2033.8</ele>
        <time>2013-07-28T07:56:06Z</time>
      </trkpt>
      <trkpt lat="45.612210016697645" lon="7.044853996485472">
        <ele>2034.5</ele>
        <time>2013-07-28T07:56:18Z</time>
      </trkpt>
      <trkpt lat="45.612210016697645" lon="7.044767998158932">
        <ele>2035</ele>
        <time>2013-07-28T07:56:32Z</time>
      </trkpt>
      <trkpt lat="45.612187972292304" lon="7.044660961255431">
        <ele>2035.0999999999999</ele>
        <time>2013-07-28T07:56:51Z</time>
      </trkpt>
      <trkpt lat="45.612167017534375" lon="7.044554008170962">
        <ele>2035.9000000000001</ele>
        <time>2013-07-28T07:57:09Z</time>
      </trkpt>
      <trkpt lat="45.612167017534375" lon="7.044468009844422">
        <ele>2038.5</ele>
        <time>2013-07-28T07:57:23Z</time>
      </trkpt>
      <trkpt lat="45.612187972292304" lon="7.044382011517882">
        <ele>2041.5999999999999</ele>
        <time>2013-07-28T07:57:38Z</time>
      </trkpt>
      <trkpt lat="45.612210016697645" lon="7.044274974614382">
        <ele>2045.2</ele>
        <time>2013-07-28T07:57:57Z</time>
      </trkpt>
      <trkpt lat="45.612253015860915" lon="7.044274974614382">
        <ele>2046.0999999999999</ele>
        <time>2013-07-28T07:58:07Z</time>
      </trkpt>
      <trkpt lat="45.612273970618844" lon="7.044231975451112">
        <ele>2047.8</ele>
        <time>2013-07-28T07:58:15Z</time>
      </trkpt>
      <trkpt lat="45.612295009195805" lon="7.044211020693183">
        <ele>2048.8000000000002</ele>
        <time>2013-07-28T07:58:22Z</time>
      </trkpt>
      <trkpt lat="45.612295009195805" lon="7.044211020693183">
        <ele>2048.8000000000002</ele>
        <time>2013-07-28T07:58:22Z</time>
      </trkpt>
      <trkpt lat="45.612338008359075" lon="7.044231975451112">
        <ele>2049.0999999999999</ele>
        <time>2013-07-28T07:58:32Z</time>
      </trkpt>
      <trkpt lat="45.612381007522345" lon="7.044188976287842">
        <ele>2051.0999999999999</ele>
        <time>2013-07-28T07:58:45Z</time>
      </trkpt>
      <trkpt lat="45.612402968108654" lon="7.044059978798032">
        <ele>2055.0999999999999</ele>
        <time>2013-07-28T07:59:06Z</time>
      </trkpt>
      <trkpt lat="45.612424006685615" lon="7.043996024876833">
        <ele>2057.1999999999998</ele>
        <time>2013-07-28T07:59:18Z</time>
      </trkpt>
      <trkpt lat="45.612467005848885" lon="7.043974986299872">
        <ele>2058.5</ele>
        <time>2013-07-28T07:59:29Z</time>
      </trkpt>
      <trkpt lat="45.612510005012155" lon="7.043974986299872">
        <ele>2059.1999999999998</ele>
        <time>2013-07-28T07:59:39Z</time>
      </trkpt>
      <trkpt lat="45.612510005012155" lon="7.043974986299872">
        <ele>2059.1999999999998</ele>
        <time>2013-07-28T07:59:39Z</time>
      </trkpt>
      <trkpt lat="45.612510005012155" lon="7.043888987973332">
        <ele>2061.5</ele>
        <time>2013-07-28T07:59:53Z</time>
      </trkpt>
      <trkpt lat="45.612510005012155" lon="7.043824028223753">
        <ele>2063.1999999999998</ele>
        <time>2013-07-28T08:00:04Z</time>
      </trkpt>
      <trkpt lat="45.612467005848885" lon="7.043695030733943">
        <ele>2066.0999999999999</ele>
        <time>2013-07-28T08:00:27Z</time>
      </trkpt>
      <trkpt lat="45.612445967271924" lon="7.043587993830442">
        <ele>2069</ele>
        <time>2013-07-28T08:00:46Z</time>
      </trkpt>
      <trkpt lat="45.612424006685615" lon="7.043481040745974">
        <ele>2072</ele>
        <time>2013-07-28T08:01:04Z</time>
      </trkpt>
      <trkpt lat="45.612402968108654" lon="7.043394958600402">
        <ele>2074.3000000000002</ele>
        <time>2013-07-28T08:01:19Z</time>
      </trkpt>
      <trkpt lat="45.612402968108654" lon="7.043394958600402">
        <ele>2074.3000000000002</ele>
        <time>2013-07-28T08:01:19Z</time>
      </trkpt>
      <trkpt lat="45.612402968108654" lon="7.043394958600402">
        <ele>2074.3000000000002</ele>
        <time>2013-07-28T08:01:19Z</time>
      </trkpt>
      <trkpt lat="45.612359968945384" lon="7.043308960273862">
        <ele>2076.4000000000001</ele>
        <time>2013-07-28T08:01:36Z</time>
      </trkpt>
      <trkpt lat="45.612424006685615" lon="7.043265961110592">
        <ele>2078.4000000000001</ele>
        <time>2013-07-28T08:01:53Z</time>
      </trkpt>
      <trkpt lat="45.612424006685615" lon="7.043265961110592">
        <ele>2078.4000000000001</ele>
        <time>2013-07-28T08:01:53Z</time>
      </trkpt>
      <trkpt lat="45.612488966435194" lon="7.043245006352663">
        <ele>2079.6999999999998</ele>
        <time>2013-07-28T08:02:09Z</time>
      </trkpt>
      <trkpt lat="45.612553004175425" lon="7.043202007189393">
        <ele>2081.6999999999998</ele>
        <time>2013-07-28T08:02:25Z</time>
      </trkpt>
      <trkpt lat="45.612553004175425" lon="7.043159008026123">
        <ele>2082.9000000000001</ele>
        <time>2013-07-28T08:02:32Z</time>
      </trkpt>
      <trkpt lat="45.612596003338695" lon="7.043159008026123">
        <ele>2083.4000000000001</ele>
        <time>2013-07-28T08:02:43Z</time>
      </trkpt>
      <trkpt lat="45.612660041078925" lon="7.043137969449163">
        <ele>2084.5999999999999</ele>
        <time>2013-07-28T08:02:58Z</time>
      </trkpt>
      <trkpt lat="45.612703040242195" lon="7.043116008862853">
        <ele>2085.5999999999999</ele>
        <time>2013-07-28T08:03:09Z</time>
      </trkpt>
      <trkpt lat="45.612660041078925" lon="7.043008971959353">
        <ele>2088.1999999999998</ele>
        <time>2013-07-28T08:03:29Z</time>
      </trkpt>
      <trkpt lat="45.612553004175425" lon="7.042902018874884">
        <ele>2090.4000000000001</ele>
        <time>2013-07-28T08:04:00Z</time>
      </trkpt>
      <trkpt lat="45.612424006685615" lon="7.042793976143003">
        <ele>2092.1999999999998</ele>
        <time>2013-07-28T08:04:35Z</time>
      </trkpt>
      <trkpt lat="45.612338008359075" lon="7.042773021385074">
        <ele>2092.0999999999999</ele>
        <time>2013-07-28T08:04:56Z</time>
      </trkpt>
      <trkpt lat="45.612295009195805" lon="7.042730022221804">
        <ele>2092.8000000000002</ele>
        <time>2013-07-28T08:05:08Z</time>
      </trkpt>
      <trkpt lat="45.612230971455574" lon="7.042687023058534">
        <ele>2093.4000000000001</ele>
        <time>2013-07-28T08:05:25Z</time>
      </trkpt>
      <trkpt lat="45.612187972292304" lon="7.042665984481573">
        <ele>2093.5999999999999</ele>
        <time>2013-07-28T08:05:35Z</time>
      </trkpt>
      <trkpt lat="45.612167017534375" lon="7.042601024731994">
        <ele>2095.0999999999999</ele>
        <time>2013-07-28T08:05:47Z</time>
      </trkpt>
      <trkpt lat="45.612187972292304" lon="7.042558025568724">
        <ele>2096.5</ele>
        <time>2013-07-28T08:05:56Z</time>
      </trkpt>
      <trkpt lat="45.612187972292304" lon="7.042450988665223">
        <ele>2099.3000000000002</ele>
        <time>2013-07-28T08:06:13Z</time>
      </trkpt>
      <trkpt lat="45.612124018371105" lon="7.042407989501953">
        <ele>2099.8000000000002</ele>
        <time>2013-07-28T08:06:30Z</time>
      </trkpt>
      <trkpt lat="45.612101973965764" lon="7.042407989501953">
        <ele>2099.5999999999999</ele>
        <time>2013-07-28T08:06:35Z</time>
      </trkpt>
      <trkpt lat="45.612038020044565" lon="7.042407989501953">
        <ele>2099</ele>
        <time>2013-07-28T08:06:50Z</time>
      </trkpt>
      <trkpt lat="45.611995020881295" lon="7.042344035580754">
        <ele>2100.3000000000002</ele>
        <time>2013-07-28T08:07:05Z</time>
      </trkpt>
      <trkpt lat="45.611952021718025" lon="7.042278992012143">
        <ele>2101.5999999999999</ele>
        <time>2013-07-28T08:07:20Z</time>
      </trkpt>
      <trkpt lat="45.611952021718025" lon="7.042215038090944">
        <ele>2103.3000000000002</ele>
        <time>2013-07-28T08:07:30Z</time>
      </trkpt>
      <trkpt lat="45.611972976475954" lon="7.042172038927674">
        <ele>2104.5999999999999</ele>
        <time>2013-07-28T08:07:39Z</time>
      </trkpt>
      <trkpt lat="45.611952021718025" lon="7.042086040601134">
        <ele>2106.6999999999998</ele>
        <time>2013-07-28T08:07:54Z</time>
      </trkpt>
      <trkpt lat="45.611952021718025" lon="7.042022002860904">
        <ele>2107.8000000000002</ele>
        <time>2013-07-28T08:08:05Z</time>
      </trkpt>
      <trkpt lat="45.611952021718025" lon="7.042022002860904">
        <ele>2107.8000000000002</ele>
        <time>2013-07-28T08:08:05Z</time>
      </trkpt>
      <trkpt lat="45.611952021718025" lon="7.041999958455563">
        <ele>2108.0999999999999</ele>
        <time>2013-07-28T08:08:08Z</time>
      </trkpt>
      <trkpt lat="45.611952021718025" lon="7.041893005371094">
        <ele>2109.9000000000001</ele>
        <time>2013-07-28T08:08:26Z</time>
      </trkpt>
      <trkpt lat="45.612016981467605" lon="7.041871966794133">
        <ele>2110.9000000000001</ele>
        <time>2013-07-28T08:08:41Z</time>
      </trkpt>
      <trkpt lat="45.612016981467605" lon="7.041871966794133">
        <ele>2110.9000000000001</ele>
        <time>2013-07-28T08:08:41Z</time>
      </trkpt>
      <trkpt lat="45.612144973129034" lon="7.041979003697634">
        <ele>2110.5</ele>
        <time>2013-07-28T08:09:16Z</time>
      </trkpt>
      <trkpt lat="45.612295009195805" lon="7.042043041437864">
        <ele>2111</ele>
        <time>2013-07-28T08:09:53Z</time>
      </trkpt>
      <trkpt lat="45.612467005848885" lon="7.042043041437864">
        <ele>2112.9000000000001</ele>
        <time>2013-07-28T08:10:34Z</time>
      </trkpt>
      <trkpt lat="45.612553004175425" lon="7.041999958455563">
        <ele>2114.6999999999998</ele>
        <time>2013-07-28T08:10:55Z</time>
      </trkpt>
      <trkpt lat="45.612510005012155" lon="7.041893005371094">
        <ele>2116.3000000000002</ele>
        <time>2013-07-28T08:11:16Z</time>
      </trkpt>
      <trkpt lat="45.612510005012155" lon="7.041893005371094">
        <ele>2116.3000000000002</ele>
        <time>2013-07-28T08:11:16Z</time>
      </trkpt>
      <trkpt lat="45.612616958096623" lon="7.041936004534364">
        <ele>2116.6999999999998</ele>
        <time>2013-07-28T08:11:42Z</time>
      </trkpt>
      <trkpt lat="45.612682001665235" lon="7.041807007044554">
        <ele>2120.0999999999999</ele>
        <time>2013-07-28T08:12:08Z</time>
      </trkpt>
      <trkpt lat="45.612725000828505" lon="7.041722014546394">
        <ele>2122.3000000000002</ele>
        <time>2013-07-28T08:12:25Z</time>
      </trkpt>
      <trkpt lat="45.612809993326664" lon="7.041699970141053">
        <ele>2123.9000000000001</ele>
        <time>2013-07-28T08:12:46Z</time>
      </trkpt>
      <trkpt lat="45.612875036895275" lon="7.041699970141053">
        <ele>2124.6999999999998</ele>
        <time>2013-07-28T08:13:01Z</time>
      </trkpt>
      <trkpt lat="45.612918036058545" lon="7.041656970977783">
        <ele>2126.1999999999998</ele>
        <time>2013-07-28T08:13:13Z</time>
      </trkpt>
      <trkpt lat="45.613004034385085" lon="7.041570972651243">
        <ele>2130</ele>
        <time>2013-07-28T08:13:38Z</time>
      </trkpt>
      <trkpt lat="45.613089026883245" lon="7.041507018730044">
        <ele>2133.3000000000002</ele>
        <time>2013-07-28T08:14:01Z</time>
      </trkpt>
      <trkpt lat="45.613153986632824" lon="7.041507018730044">
        <ele>2134.6999999999998</ele>
        <time>2013-07-28T08:14:16Z</time>
      </trkpt>
      <trkpt lat="45.613239984959364" lon="7.041464019566774">
        <ele>2137.5</ele>
        <time>2013-07-28T08:14:37Z</time>
      </trkpt>
      <trkpt lat="45.613304022699594" lon="7.041442980989814">
        <ele>2139.3000000000002</ele>
        <time>2013-07-28T08:14:53Z</time>
      </trkpt>
      <trkpt lat="45.613367976620793" lon="7.041356982663274">
        <ele>2142.3000000000002</ele>
        <time>2013-07-28T08:15:14Z</time>
      </trkpt>
      <trkpt lat="45.613433020189404" lon="7.041378021240234">
        <ele>2143.1999999999998</ele>
        <time>2013-07-28T08:15:29Z</time>
      </trkpt>
      <trkpt lat="45.613518012687564" lon="7.041356982663274">
        <ele>2145.4000000000001</ele>
        <time>2013-07-28T08:15:50Z</time>
      </trkpt>
      <trkpt lat="45.613582972437143" lon="7.041249023750424">
        <ele>2148.5999999999999</ele>
        <time>2013-07-28T08:16:13Z</time>
      </trkpt>
      <trkpt lat="45.613647010177374" lon="7.041141986846924">
        <ele>2151.8000000000002</ele>
        <time>2013-07-28T08:16:36Z</time>
      </trkpt>
      <trkpt lat="45.613668970763683" lon="7.041078032925725">
        <ele>2153.4000000000001</ele>
        <time>2013-07-28T08:16:48Z</time>
      </trkpt>
      <trkpt lat="45.613668970763683" lon="7.040992034599185">
        <ele>2155</ele>
        <time>2013-07-28T08:17:02Z</time>
      </trkpt>
      <trkpt lat="45.613753963261843" lon="7.040949035435915">
        <ele>2157.5999999999999</ele>
        <time>2013-07-28T08:17:23Z</time>
      </trkpt>
      <trkpt lat="45.613753963261843" lon="7.040841998532414">
        <ele>2159.5</ele>
        <time>2013-07-28T08:17:41Z</time>
      </trkpt>
      <trkpt lat="45.613797968253493" lon="7.040734039619565">
        <ele>2162.8000000000002</ele>
        <time>2013-07-28T08:18:02Z</time>
      </trkpt>
      <trkpt lat="45.613882960751653" lon="7.040734039619565">
        <ele>2165.5</ele>
        <time>2013-07-28T08:18:22Z</time>
      </trkpt>
      <trkpt lat="45.613948004320264" lon="7.040691040456295">
        <ele>2168.3000000000002</ele>
        <time>2013-07-28T08:18:38Z</time>
      </trkpt>
      <trkpt lat="45.613968959078193" lon="7.040584003552795">
        <ele>2170.9000000000001</ele>
        <time>2013-07-28T08:18:57Z</time>
      </trkpt>
      <trkpt lat="45.613925959914923" lon="7.040476966649294">
        <ele>2171.4000000000001</ele>
        <time>2013-07-28T08:19:17Z</time>
      </trkpt>
      <trkpt lat="45.613925959914923" lon="7.040390968322754">
        <ele>2173</ele>
        <time>2013-07-28T08:19:31Z</time>
      </trkpt>
      <trkpt lat="45.613991003483534" lon="7.040347969159484">
        <ele>2175.9000000000001</ele>
        <time>2013-07-28T08:19:48Z</time>
      </trkpt>
      <trkpt lat="45.614098040387034" lon="7.040218971669674">
        <ele>2182</ele>
        <time>2013-07-28T08:20:21Z</time>
      </trkpt>
      <trkpt lat="45.614075995981693" lon="7.040069019421935">
        <ele>2184.4000000000001</ele>
        <time>2013-07-28T08:20:46Z</time>
      </trkpt>
      <trkpt lat="45.614011958241463" lon="7.039961982518435">
        <ele>2184.5999999999999</ele>
        <time>2013-07-28T08:21:10Z</time>
      </trkpt>
      <trkpt lat="45.613839961588383" lon="7.039898028597236">
        <ele>2180.5</ele>
        <time>2013-07-28T08:21:51Z</time>
      </trkpt>
      <trkpt lat="45.613711969926953" lon="7.039769031107426">
        <ele>2179.3000000000002</ele>
        <time>2013-07-28T08:22:28Z</time>
      </trkpt>
      <trkpt lat="45.613668970763683" lon="7.039532996714115">
        <ele>2182.4000000000001</ele>
        <time>2013-07-28T08:23:09Z</time>
      </trkpt>
      <trkpt lat="45.613690009340644" lon="7.039318000897765">
        <ele>2185</ele>
        <time>2013-07-28T08:23:44Z</time>
      </trkpt>
      <trkpt lat="45.613733008503914" lon="7.038932014256716">
        <ele>2189.8000000000002</ele>
        <time>2013-07-28T08:24:49Z</time>
      </trkpt>
      <trkpt lat="45.613839961588383" lon="7.038652980700135">
        <ele>2195.5999999999999</ele>
        <time>2013-07-28T08:25:41Z</time>
      </trkpt>
      <trkpt lat="45.613948004320264" lon="7.038202034309506">
        <ele>2202.5</ele>
        <time>2013-07-28T08:26:59Z</time>
      </trkpt>
      <trkpt lat="45.613948004320264" lon="7.038202034309506">
        <ele>2202.5</ele>
        <time>2013-07-28T08:26:59Z</time>
      </trkpt>
      <trkpt lat="45.614034002646804" lon="7.037838008254767">
        <ele>2207.9000000000001</ele>
        <time>2013-07-28T08:28:03Z</time>
      </trkpt>
      <trkpt lat="45.614075995981693" lon="7.037558974698186">
        <ele>2211.8000000000002</ele>
        <time>2013-07-28T08:28:50Z</time>
      </trkpt>
      <trkpt lat="45.614055041223764" lon="7.037300979718566">
        <ele>2213.5999999999999</ele>
        <time>2013-07-28T08:29:33Z</time>
      </trkpt>
      <trkpt lat="45.613948004320264" lon="7.036957992240787">
        <ele>2215.1999999999998</ele>
        <time>2013-07-28T08:30:35Z</time>
      </trkpt>
      <trkpt lat="45.613948004320264" lon="7.036957992240787">
        <ele>2215.1999999999998</ele>
        <time>2013-07-28T08:30:35Z</time>
      </trkpt>
      <trkpt lat="45.613948004320264" lon="7.036957992240787">
        <ele>2215.1999999999998</ele>
        <time>2013-07-28T08:30:35Z</time>
      </trkpt>
      <trkpt lat="45.613948004320264" lon="7.036957992240787">
        <ele>2215.1999999999998</ele>
        <time>2013-07-28T08:30:35Z</time>
      </trkpt>
      <trkpt lat="45.613948004320264" lon="7.036957992240787">
        <ele>2215.1999999999998</ele>
        <time>2013-07-28T08:30:35Z</time>
      </trkpt>
      <trkpt lat="45.613948004320264" lon="7.036957992240787">
        <ele>2215.1999999999998</ele>
        <time>2013-07-28T08:30:35Z</time>
      </trkpt>
      <trkpt lat="45.613948004320264" lon="7.036957992240787">
        <ele>2215.1999999999998</ele>
        <time>2013-07-28T08:30:35Z</time>
      </trkpt>
      <trkpt lat="45.613948004320264" lon="7.036957992240787">
        <ele>2215.1999999999998</ele>
        <time>2013-07-28T08:30:35Z</time>
      </trkpt>
      <trkpt lat="45.614034002646804" lon="7.036808039993048">
        <ele>2220</ele>
        <time>2013-07-28T08:31:06Z</time>
      </trkpt>
      <trkpt lat="45.614034002646804" lon="7.036613998934627">
        <ele>2223.4000000000001</ele>
        <time>2013-07-28T08:31:38Z</time>
      </trkpt>
      <trkpt lat="45.614075995981693" lon="7.036529006436467">
        <ele>2226</ele>
        <time>2013-07-28T08:31:56Z</time>
      </trkpt>
      <trkpt lat="45.614118995144963" lon="7.036463962867856">
        <ele>2228.0999999999999</ele>
        <time>2013-07-28T08:32:10Z</time>
      </trkpt>
      <trkpt lat="45.614118995144963" lon="7.036400008946657">
        <ele>2229.1999999999998</ele>
        <time>2013-07-28T08:32:21Z</time>
      </trkpt>
      <trkpt lat="45.614184038713574" lon="7.036377964541316">
        <ele>2231.1999999999998</ele>
        <time>2013-07-28T08:32:37Z</time>
      </trkpt>
      <trkpt lat="45.614290991798043" lon="7.036100020632148">
        <ele>2239.8000000000002</ele>
        <time>2013-07-28T08:33:29Z</time>
      </trkpt>
      <trkpt lat="45.614441027864814" lon="7.036120975390077">
        <ele>2242.9000000000001</ele>
        <time>2013-07-28T08:34:04Z</time>
      </trkpt>
      <trkpt lat="45.614441027864814" lon="7.036120975390077">
        <ele>2242.9000000000001</ele>
        <time>2013-07-28T08:34:04Z</time>
      </trkpt>
      <trkpt lat="45.614419989287853" lon="7.036014022305608">
        <ele>2245.0999999999999</ele>
        <time>2013-07-28T08:34:23Z</time>
      </trkpt>
      <trkpt lat="45.614484027028084" lon="7.035862980410457">
        <ele>2250.4000000000001</ele>
        <time>2013-07-28T08:34:52Z</time>
      </trkpt>
      <trkpt lat="45.614527026191354" lon="7.035862980410457">
        <ele>2251.4000000000001</ele>
        <time>2013-07-28T08:35:02Z</time>
      </trkpt>
      <trkpt lat="45.614527026191354" lon="7.035777987912297">
        <ele>2253.5999999999999</ele>
        <time>2013-07-28T08:35:16Z</time>
      </trkpt>
      <trkpt lat="45.614570025354624" lon="7.035349002107978">
        <ele>2265.6999999999998</ele>
        <time>2013-07-28T08:36:27Z</time>
      </trkpt>
      <trkpt lat="45.614805975928903" lon="7.035220004618168">
        <ele>2274.0999999999999</ele>
        <time>2013-07-28T08:37:27Z</time>
      </trkpt>
      <trkpt lat="45.614719977602363" lon="7.035068962723017">
        <ele>2276.9000000000001</ele>
        <time>2013-07-28T08:37:59Z</time>
      </trkpt>
      <trkpt lat="45.614785021170974" lon="7.034897971898317">
        <ele>2282.9000000000001</ele>
        <time>2013-07-28T08:38:31Z</time>
      </trkpt>
      <trkpt lat="45.614827014505863" lon="7.034705020487309">
        <ele>2289.0999999999999</ele>
        <time>2013-07-28T08:39:04Z</time>
      </trkpt>
      <trkpt lat="45.614891974255443" lon="7.034511985257268">
        <ele>2295.8000000000002</ele>
        <time>2013-07-28T08:39:40Z</time>
      </trkpt>
      <trkpt lat="45.614785021170974" lon="7.034404026344419">
        <ele>2297.8000000000002</ele>
        <time>2013-07-28T08:40:10Z</time>
      </trkpt>
      <trkpt lat="45.614699022844434" lon="7.034253990277648">
        <ele>2301.4000000000001</ele>
        <time>2013-07-28T08:40:42Z</time>
      </trkpt>
      <trkpt lat="45.614699022844434" lon="7.034167991951108">
        <ele>2304.1999999999998</ele>
        <time>2013-07-28T08:40:56Z</time>
      </trkpt>
      <trkpt lat="45.614527026191354" lon="7.034061038866639">
        <ele>2304.9000000000001</ele>
        <time>2013-07-28T08:41:41Z</time>
      </trkpt>
      <trkpt lat="45.614441027864814" lon="7.034040000289679">
        <ele>2304.0999999999999</ele>
        <time>2013-07-28T08:42:01Z</time>
      </trkpt>
      <trkpt lat="45.614313036203384" lon="7.033825004473329">
        <ele>2308.9000000000001</ele>
        <time>2013-07-28T08:42:48Z</time>
      </trkpt>
      <trkpt lat="45.614355029538274" lon="7.033760966733098">
        <ele>2311.8000000000002</ele>
        <time>2013-07-28T08:43:02Z</time>
      </trkpt>
      <trkpt lat="45.614270037040114" lon="7.033545970916748">
        <ele>2317</ele>
        <time>2013-07-28T08:43:43Z</time>
      </trkpt>
      <trkpt lat="45.614204993471503" lon="7.033159984275699">
        <ele>2328.1999999999998</ele>
        <time>2013-07-28T08:44:48Z</time>
      </trkpt>
      <trkpt lat="45.614075995981693" lon="7.03301003202796">
        <ele>2331.6999999999998</ele>
        <time>2013-07-28T08:45:28Z</time>
      </trkpt>
      <trkpt lat="45.614034002646804" lon="7.03270903788507">
        <ele>2341.3000000000002</ele>
        <time>2013-07-28T08:46:18Z</time>
      </trkpt>
      <trkpt lat="45.613968959078193" lon="7.032645000144839">
        <ele>2343</ele>
        <time>2013-07-28T08:46:37Z</time>
      </trkpt>
      <trkpt lat="45.613839961588383" lon="7.032687999308109">
        <ele>2340.8000000000002</ele>
        <time>2013-07-28T08:47:08Z</time>
      </trkpt>
      <trkpt lat="45.613753963261843" lon="7.032430004328489">
        <ele>2349.5</ele>
        <time>2013-07-28T08:47:55Z</time>
      </trkpt>
      <trkpt lat="45.613604011014104" lon="7.03225901350379">
        <ele>2352.0999999999999</ele>
        <time>2013-07-28T08:48:40Z</time>
      </trkpt>
      <trkpt lat="45.613453974947333" lon="7.03208701685071">
        <ele>2355.0999999999999</ele>
        <time>2013-07-28T08:49:25Z</time>
      </trkpt>
      <trkpt lat="45.613496974110603" lon="7.0319580193609">
        <ele>2359.8000000000002</ele>
        <time>2013-07-28T08:49:49Z</time>
      </trkpt>
      <trkpt lat="45.613433020189404" lon="7.03182902187109">
        <ele>2361.9000000000001</ele>
        <time>2013-07-28T08:50:15Z</time>
      </trkpt>
      <trkpt lat="45.613410975784063" lon="7.031635986641049">
        <ele>2366.6999999999998</ele>
        <time>2013-07-28T08:50:47Z</time>
      </trkpt>
      <trkpt lat="45.613518012687564" lon="7.031678985804319">
        <ele>2368.0999999999999</ele>
        <time>2013-07-28T08:51:13Z</time>
      </trkpt>
      <trkpt lat="45.613582972437143" lon="7.031592987477779">
        <ele>2372.0999999999999</ele>
        <time>2013-07-28T08:51:34Z</time>
      </trkpt>
      <trkpt lat="45.613496974110603" lon="7.031486034393311">
        <ele>2373</ele>
        <time>2013-07-28T08:52:01Z</time>
      </trkpt>
      <trkpt lat="45.613539973273873" lon="7.03125">
        <ele>2380.6999999999998</ele>
        <time>2013-07-28T08:52:41Z</time>
      </trkpt>
      <trkpt lat="45.613625971600413" lon="7.030864013358951">
        <ele>2387.8000000000002</ele>
        <time>2013-07-28T08:53:48Z</time>
      </trkpt>
      <trkpt lat="45.613539973273873" lon="7.030649017542601">
        <ele>2388.0999999999999</ele>
        <time>2013-07-28T08:54:28Z</time>
      </trkpt>
      <trkpt lat="45.613518012687564" lon="7.03062797896564">
        <ele>2387.8000000000002</ele>
        <time>2013-07-28T08:54:34Z</time>
      </trkpt>
      <trkpt lat="45.613582972437143" lon="7.03049898147583">
        <ele>2391.1999999999998</ele>
        <time>2013-07-28T08:55:01Z</time>
      </trkpt>
      <trkpt lat="45.613582972437143" lon="7.029854999855161">
        <ele>2395.0999999999999</ele>
        <time>2013-07-28T08:56:47Z</time>
      </trkpt>
      <trkpt lat="45.613625971600413" lon="7.02970496378839">
        <ele>2397.3000000000002</ele>
        <time>2013-07-28T08:57:13Z</time>
      </trkpt>
      <trkpt lat="45.613862005993724" lon="7.029490973800421">
        <ele>2403.3000000000002</ele>
        <time>2013-07-28T08:58:19Z</time>
      </trkpt>
      <trkpt lat="45.613882960751653" lon="7.029255023226142">
        <ele>2404.1999999999998</ele>
        <time>2013-07-28T08:58:58Z</time>
      </trkpt>
      <trkpt lat="45.613968959078193" lon="7.029126025736332">
        <ele>2405.3000000000002</ele>
        <time>2013-07-28T08:59:28Z</time>
      </trkpt>
      <trkpt lat="45.613991003483534" lon="7.028911029919982">
        <ele>2406.1999999999998</ele>
        <time>2013-07-28T09:00:03Z</time>
      </trkpt>
      <trkpt lat="45.614527026191354" lon="7.027817023918033">
        <ele>2411.1999999999998</ele>
        <time>2013-07-28T09:03:43Z</time>
      </trkpt>
      <trkpt lat="45.614613024517894" lon="7.027731025591493">
        <ele>2412</ele>
        <time>2013-07-28T09:04:08Z</time>
      </trkpt>
      <trkpt lat="45.615085009485483" lon="7.027152003720403">
        <ele>2419.8000000000002</ele>
        <time>2013-07-28T09:06:35Z</time>
      </trkpt>
      <trkpt lat="45.615257006138563" lon="7.026829971000552">
        <ele>2422.0999999999999</ele>
        <time>2013-07-28T09:07:41Z</time>
      </trkpt>
      <trkpt lat="45.615384997799993" lon="7.026743972674012">
        <ele>2423.3000000000002</ele>
        <time>2013-07-28T09:08:15Z</time>
      </trkpt>
      <trkpt lat="45.615470996126533" lon="7.026336025446653">
        <ele>2424.5</ele>
        <time>2013-07-28T09:09:25Z</time>
      </trkpt>
      <trkpt lat="45.615642992779613" lon="7.026228988543153">
        <ele>2428.4000000000001</ele>
        <time>2013-07-28T09:10:09Z</time>
      </trkpt>
      <trkpt lat="45.615856982767582" lon="7.025993037968874">
        <ele>2432.3000000000002</ele>
        <time>2013-07-28T09:11:13Z</time>
      </trkpt>
      <trkpt lat="45.616351012140512" lon="7.025328017771244">
        <ele>2436.6999999999998</ele>
        <time>2013-07-28T09:13:52Z</time>
      </trkpt>
      <trkpt lat="45.616672961041331" lon="7.025048984214664">
        <ele>2444.3000000000002</ele>
        <time>2013-07-28T09:15:21Z</time>
      </trkpt>
      <trkpt lat="45.617145029827952" lon="7.024684036150575">
        <ele>2454.9000000000001</ele>
        <time>2013-07-28T09:17:27Z</time>
      </trkpt>
      <trkpt lat="45.617402018979192" lon="7.024319004267454">
        <ele>2462.1999999999998</ele>
        <time>2013-07-28T09:18:53Z</time>
      </trkpt>
      <trkpt lat="45.617680968716741" lon="7.023976016789675">
        <ele>2468.9000000000001</ele>
        <time>2013-07-28T09:20:19Z</time>
      </trkpt>
      <trkpt lat="45.617617014795542" lon="7.024405002593994">
        <ele>2474.1999999999998</ele>
        <time>2013-07-28T09:21:32Z</time>
      </trkpt>
      <trkpt lat="45.617895964533091" lon="7.024168968200684">
        <ele>2482.5999999999999</ele>
        <time>2013-07-28T09:22:48Z</time>
      </trkpt>
      <trkpt lat="45.617981962859631" lon="7.024039970710874">
        <ele>2484.5</ele>
        <time>2013-07-28T09:23:17Z</time>
      </trkpt>
      <trkpt lat="45.618346994742751" lon="7.023890018463135">
        <ele>2502.5999999999999</ele>
        <time>2013-07-28T09:24:47Z</time>
      </trkpt>
      <trkpt lat="45.618560984730721" lon="7.023696983233094">
        <ele>2510.6999999999998</ele>
        <time>2013-07-28T09:25:46Z</time>
      </trkpt>
      <trkpt lat="45.618431987240911" lon="7.024233005940914">
        <ele>2515.6999999999998</ele>
        <time>2013-07-28T09:27:20Z</time>
      </trkpt>
      <trkpt lat="45.618583029136062" lon="7.024168968200684">
        <ele>2523.0999999999999</ele>
        <time>2013-07-28T09:27:57Z</time>
      </trkpt>
      <trkpt lat="45.618775980547071" lon="7.023847019299865">
        <ele>2526.9000000000001</ele>
        <time>2013-07-28T09:29:07Z</time>
      </trkpt>
      <trkpt lat="45.618883017450571" lon="7.023590030148625">
        <ele>2527.4000000000001</ele>
        <time>2013-07-28T09:29:56Z</time>
      </trkpt>
      <trkpt lat="45.619098013266921" lon="7.023418033495545">
        <ele>2537</ele>
        <time>2013-07-28T09:30:54Z</time>
      </trkpt>
      <trkpt lat="45.619098013266921" lon="7.023633029311895">
        <ele>2542</ele>
        <time>2013-07-28T09:31:29Z</time>
      </trkpt>
      <trkpt lat="45.61924796551466" lon="7.023504031822085">
        <ele>2548.5999999999999</ele>
        <time>2013-07-28T09:32:10Z</time>
      </trkpt>
      <trkpt lat="45.61918300576508" lon="7.023804020136595">
        <ele>2551</ele>
        <time>2013-07-28T09:33:02Z</time>
      </trkpt>
      <trkpt lat="45.61914000660181" lon="7.024105014279485">
        <ele>2553.9000000000001</ele>
        <time>2013-07-28T09:33:53Z</time>
      </trkpt>
      <trkpt lat="45.61935500241816" lon="7.024362003430724">
        <ele>2570.0999999999999</ele>
        <time>2013-07-28T09:34:59Z</time>
      </trkpt>
      <trkpt lat="45.619548037648201" lon="7.024491000920534">
        <ele>2582.0999999999999</ele>
        <time>2013-07-28T09:35:49Z</time>
      </trkpt>
      <trkpt lat="45.619505038484931" lon="7.024319004267454">
        <ele>2577.5999999999999</ele>
        <time>2013-07-28T09:36:19Z</time>
      </trkpt>
      <trkpt lat="45.619720034301281" lon="7.024469040334225">
        <ele>2589.5</ele>
        <time>2013-07-28T09:37:15Z</time>
      </trkpt>
      <trkpt lat="45.6201490201056" lon="7.024491000920534">
        <ele>2607.9000000000001</ele>
        <time>2013-07-28T09:38:56Z</time>
      </trkpt>
      <trkpt lat="45.620126975700259" lon="7.024319004267454">
        <ele>2605.5</ele>
        <time>2013-07-28T09:39:25Z</time>
      </trkpt>
      <trkpt lat="45.62036301009357" lon="7.024276005104184">
        <ele>2615.5</ele>
        <time>2013-07-28T09:40:21Z</time>
      </trkpt>
      <trkpt lat="45.62053500674665" lon="7.024062015116215">
        <ele>2621</ele>
        <time>2013-07-28T09:41:15Z</time>
      </trkpt>
      <trkpt lat="45.620598960667849" lon="7.023868979886174">
        <ele>2622.4000000000001</ele>
        <time>2013-07-28T09:41:50Z</time>
      </trkpt>
      <trkpt lat="45.62090003862977" lon="7.023633029311895">
        <ele>2634.5</ele>
        <time>2013-07-28T09:43:11Z</time>
      </trkpt>
      <trkpt lat="45.62090003862977" lon="7.023847019299865">
        <ele>2634.6999999999998</ele>
        <time>2013-07-28T09:43:46Z</time>
      </trkpt>
      <trkpt lat="45.621092990040779" lon="7.023481987416744">
        <ele>2643.1999999999998</ele>
        <time>2013-07-28T09:45:01Z</time>
      </trkpt>
      <trkpt lat="45.621135989204049" lon="7.023590030148625">
        <ele>2644.6999999999998</ele>
        <time>2013-07-28T09:45:22Z</time>
      </trkpt>
      <trkpt lat="45.621350985020399" lon="7.023418033495545">
        <ele>2654.4000000000001</ele>
        <time>2013-07-28T09:46:20Z</time>
      </trkpt>
      <trkpt lat="45.62132902443409" lon="7.023653984069824">
        <ele>2652.6999999999998</ele>
        <time>2013-07-28T09:46:59Z</time>
      </trkpt>
      <trkpt lat="45.62150102108717" lon="7.023504031822085">
        <ele>2660.5</ele>
        <time>2013-07-28T09:47:46Z</time>
      </trkpt>
      <trkpt lat="45.621521975845098" lon="7.023633029311895">
        <ele>2661.0999999999999</ele>
        <time>2013-07-28T09:48:08Z</time>
      </trkpt>
      <trkpt lat="45.621607974171638" lon="7.023590030148625">
        <ele>2664.9000000000001</ele>
        <time>2013-07-28T09:48:29Z</time>
      </trkpt>
      <trkpt lat="45.621607974171638" lon="7.023590030148625">
        <ele>2664.9000000000001</ele>
        <time>2013-07-28T09:48:29Z</time>
      </trkpt>
      <trkpt lat="45.621607974171638" lon="7.023739982396364">
        <ele>2664.5</ele>
        <time>2013-07-28T09:48:54Z</time>
      </trkpt>
      <trkpt lat="45.621715011075139" lon="7.023567985743284">
        <ele>2669.5</ele>
        <time>2013-07-28T09:49:32Z</time>
      </trkpt>
      <trkpt lat="45.621693972498178" lon="7.023804020136595">
        <ele>2668.5</ele>
        <time>2013-07-28T09:50:11Z</time>
      </trkpt>
      <trkpt lat="45.621844008564949" lon="7.023590030148625">
        <ele>2675</ele>
        <time>2013-07-28T09:51:01Z</time>
      </trkpt>
      <trkpt lat="45.622016005218029" lon="7.023461032658815">
        <ele>2682.5</ele>
        <time>2013-07-28T09:51:47Z</time>
      </trkpt>
      <trkpt lat="45.621930006891489" lon="7.023825980722904">
        <ele>2679.0999999999999</ele>
        <time>2013-07-28T09:52:50Z</time>
      </trkpt>
      <trkpt lat="45.622102003544569" lon="7.023653984069824">
        <ele>2686.0999999999999</ele>
        <time>2013-07-28T09:53:40Z</time>
      </trkpt>
      <trkpt lat="45.622122958302498" lon="7.024019015952945">
        <ele>2690.5999999999999</ele>
        <time>2013-07-28T09:54:40Z</time>
      </trkpt>
      <trkpt lat="45.622358992695808" lon="7.023782981559634">
        <ele>2701.3000000000002</ele>
        <time>2013-07-28T09:55:48Z</time>
      </trkpt>
      <trkpt lat="45.622401991859078" lon="7.024105014279485">
        <ele>2708.0999999999999</ele>
        <time>2013-07-28T09:56:42Z</time>
      </trkpt>
      <trkpt lat="45.622573988512158" lon="7.023933017626405">
        <ele>2715.8000000000002</ele>
        <time>2013-07-28T09:57:31Z</time>
      </trkpt>
      <trkpt lat="45.622595027089119" lon="7.024125969037414">
        <ele>2719.8000000000002</ele>
        <time>2013-07-28T09:58:03Z</time>
      </trkpt>
      <trkpt lat="45.622595027089119" lon="7.024319004267454">
        <ele>2722.5999999999999</ele>
        <time>2013-07-28T09:58:35Z</time>
      </trkpt>
      <trkpt lat="45.622530989348888" lon="7.024555038660765">
        <ele>2722</ele>
        <time>2013-07-28T09:59:17Z</time>
      </trkpt>
      <trkpt lat="45.622487990185618" lon="7.024727035313845">
        <ele>2721.3000000000002</ele>
        <time>2013-07-28T09:59:47Z</time>
      </trkpt>
      <trkpt lat="45.622552027925849" lon="7.024813033640385">
        <ele>2726.3000000000002</ele>
        <time>2013-07-28T10:00:08Z</time>
      </trkpt>
      <trkpt lat="45.622573988512158" lon="7.024704990908504">
        <ele>2726.4000000000001</ele>
        <time>2013-07-28T10:00:26Z</time>
      </trkpt>
      <trkpt lat="45.622615981847048" lon="7.024662997573614">
        <ele>2728.5999999999999</ele>
        <time>2013-07-28T10:00:38Z</time>
      </trkpt>
      <trkpt lat="45.622615981847048" lon="7.024727035313845">
        <ele>2729.4000000000001</ele>
        <time>2013-07-28T10:00:49Z</time>
      </trkpt>
      <trkpt lat="45.622615981847048" lon="7.025027023628354">
        <ele>2733</ele>
        <time>2013-07-28T10:01:38Z</time>
      </trkpt>
      <trkpt lat="45.622810022905469" lon="7.025456009432674">
        <ele>2752.0999999999999</ele>
        <time>2013-07-28T10:03:02Z</time>
      </trkpt>
      <trkpt lat="45.622873976826668" lon="7.025691960006952">
        <ele>2760.9000000000001</ele>
        <time>2013-07-28T10:03:44Z</time>
      </trkpt>
      <trkpt lat="45.622981013730168" lon="7.025585006922483">
        <ele>2766.3000000000002</ele>
        <time>2013-07-28T10:04:15Z</time>
      </trkpt>
      <trkpt lat="45.622916975989938" lon="7.025907039642334">
        <ele>2767.8000000000002</ele>
        <time>2013-07-28T10:05:10Z</time>
      </trkpt>
      <trkpt lat="45.623130965977907" lon="7.025735964998603">
        <ele>2779</ele>
        <time>2013-07-28T10:06:08Z</time>
      </trkpt>
      <trkpt lat="45.622939020395279" lon="7.026271987706423">
        <ele>2776.3000000000002</ele>
        <time>2013-07-28T10:07:47Z</time>
      </trkpt>
      <trkpt lat="45.623002974316478" lon="7.026228988543153">
        <ele>2779.5</ele>
        <time>2013-07-28T10:08:04Z</time>
      </trkpt>
      <trkpt lat="45.622959975153208" lon="7.026594020426273">
        <ele>2789.1999999999998</ele>
        <time>2013-07-28T10:09:05Z</time>
      </trkpt>
      <trkpt lat="45.623002974316478" lon="7.026700973510742">
        <ele>2795.8000000000002</ele>
        <time>2013-07-28T10:09:25Z</time>
      </trkpt>
      <trkpt lat="45.623088972643018" lon="7.026486983522773">
        <ele>2793.9000000000001</ele>
        <time>2013-07-28T10:10:06Z</time>
      </trkpt>
      <trkpt lat="45.623216964304447" lon="7.026293026283383">
        <ele>2796</ele>
        <time>2013-07-28T10:10:50Z</time>
      </trkpt>
      <trkpt lat="45.623388960957527" lon="7.026165034621954">
        <ele>2804.5999999999999</ele>
        <time>2013-07-28T10:11:35Z</time>
      </trkpt>
      <trkpt lat="45.623495997861028" lon="7.025971999391913">
        <ele>2807.9000000000001</ele>
        <time>2013-07-28T10:12:16Z</time>
      </trkpt>
      <trkpt lat="45.623452998697758" lon="7.026228988543153">
        <ele>2810.3000000000002</ele>
        <time>2013-07-28T10:13:00Z</time>
      </trkpt>
      <trkpt lat="45.623495997861028" lon="7.026208033785224">
        <ele>2812.8000000000002</ele>
        <time>2013-07-28T10:13:10Z</time>
      </trkpt>
      <trkpt lat="45.623581996187568" lon="7.026056991890073">
        <ele>2815.5</ele>
        <time>2013-07-28T10:13:42Z</time>
      </trkpt>
      <trkpt lat="45.623689033091068" lon="7.026013992726803">
        <ele>2821.8000000000002</ele>
        <time>2013-07-28T10:14:09Z</time>
      </trkpt>
      <trkpt lat="45.623667994514108" lon="7.026099991053343">
        <ele>2822.1999999999998</ele>
        <time>2013-07-28T10:14:24Z</time>
      </trkpt>
      <trkpt lat="45.623732032254338" lon="7.026251032948494">
        <ele>2829.8000000000002</ele>
        <time>2013-07-28T10:14:53Z</time>
      </trkpt>
      <trkpt lat="45.623775031417608" lon="7.026400985196233">
        <ele>2836.8000000000002</ele>
        <time>2013-07-28T10:15:19Z</time>
      </trkpt>
      <trkpt lat="45.623710993677378" lon="7.026571976020932">
        <ele>2837.6999999999998</ele>
        <time>2013-07-28T10:15:51Z</time>
      </trkpt>
      <trkpt lat="45.623710993677378" lon="7.026743972674012">
        <ele>2842.6999999999998</ele>
        <time>2013-07-28T10:16:20Z</time>
      </trkpt>
      <trkpt lat="45.623667994514108" lon="7.026958968490362">
        <ele>2846.3000000000002</ele>
        <time>2013-07-28T10:16:56Z</time>
      </trkpt>
      <trkpt lat="45.623689033091068" lon="7.027216041460633">
        <ele>2852.1999999999998</ele>
        <time>2013-07-28T10:17:39Z</time>
      </trkpt>
      <trkpt lat="45.623732032254338" lon="7.027431037276983">
        <ele>2856.0999999999999</ele>
        <time>2013-07-28T10:18:16Z</time>
      </trkpt>
      <trkpt lat="45.623710993677378" lon="7.027645027264953">
        <ele>2856.3000000000002</ele>
        <time>2013-07-28T10:18:52Z</time>
      </trkpt>
      <trkpt lat="45.623689033091068" lon="7.027903022244573">
        <ele>2857</ele>
        <time>2013-07-28T10:19:34Z</time>
      </trkpt>
      <trkpt lat="45.623667994514108" lon="7.028074013069272">
        <ele>2859.3000000000002</ele>
        <time>2013-07-28T10:20:03Z</time>
      </trkpt>
      <trkpt lat="45.623604040592909" lon="7.028289008885622">
        <ele>2860.4000000000001</ele>
        <time>2013-07-28T10:20:41Z</time>
      </trkpt>
      <trkpt lat="45.623647039756179" lon="7.028375007212162">
        <ele>2864.4000000000001</ele>
        <time>2013-07-28T10:20:59Z</time>
      </trkpt>
      <trkpt lat="45.623732032254338" lon="7.028352962806821">
        <ele>2868.5</ele>
        <time>2013-07-28T10:21:19Z</time>
      </trkpt>
      <trkpt lat="45.623861029744148" lon="7.028289008885622">
        <ele>2873.9000000000001</ele>
        <time>2013-07-28T10:21:51Z</time>
      </trkpt>
      <trkpt lat="45.623904028907418" lon="7.028223965317011">
        <ele>2874.9000000000001</ele>
        <time>2013-07-28T10:22:06Z</time>
      </trkpt>
      <trkpt lat="45.623990027233958" lon="7.028095973655582">
        <ele>2877.3000000000002</ele>
        <time>2013-07-28T10:22:35Z</time>
      </trkpt>
      <trkpt lat="45.624053981155157" lon="7.028032019734383">
        <ele>2879.8000000000002</ele>
        <time>2013-07-28T10:22:54Z</time>
      </trkpt>
      <trkpt lat="45.624182978644967" lon="7.027988014742732">
        <ele>2886.5</ele>
        <time>2013-07-28T10:23:25Z</time>
      </trkpt>
      <trkpt lat="45.624247016385198" lon="7.027988014742732">
        <ele>2890.1999999999998</ele>
        <time>2013-07-28T10:23:40Z</time>
      </trkpt>
      <trkpt lat="45.624290015548468" lon="7.028504004701972">
        <ele>2899.4000000000001</ele>
        <time>2013-07-28T10:25:06Z</time>
      </trkpt>
      <trkpt lat="45.624354975298047" lon="7.028654040768743">
        <ele>2904.4000000000001</ele>
        <time>2013-07-28T10:25:35Z</time>
      </trkpt>
      <trkpt lat="45.624439967796206" lon="7.028740039095283">
        <ele>2909.4000000000001</ele>
        <time>2013-07-28T10:25:59Z</time>
      </trkpt>
      <trkpt lat="45.624568965286016" lon="7.028889991343021">
        <ele>2914.5999999999999</ele>
        <time>2013-07-28T10:26:38Z</time>
      </trkpt>
      <trkpt lat="45.624591009691358" lon="7.028911029919982">
        <ele>2915.1999999999998</ele>
        <time>2013-07-28T10:26:45Z</time>
      </trkpt>
      <trkpt lat="45.624568965286016" lon="7.029169024899602">
        <ele>2913</ele>
        <time>2013-07-28T10:27:27Z</time>
      </trkpt>
      <trkpt lat="45.624611964449286" lon="7.029297016561031">
        <ele>2912.9000000000001</ele>
        <time>2013-07-28T10:27:51Z</time>
      </trkpt>
      <trkpt lat="45.624591009691358" lon="7.029404975473881">
        <ele>2912.0999999999999</ele>
        <time>2013-07-28T10:28:09Z</time>
      </trkpt>
      <trkpt lat="45.624591009691358" lon="7.029404975473881">
        <ele>2912.0999999999999</ele>
        <time>2013-07-28T10:28:09Z</time>
      </trkpt>
      <trkpt lat="45.624676002189517" lon="7.02953296713531">
        <ele>2911.3000000000002</ele>
        <time>2013-07-28T10:28:38Z</time>
      </trkpt>
      <trkpt lat="45.624634008854628" lon="7.029641009867191">
        <ele>2908.4000000000001</ele>
        <time>2013-07-28T10:28:59Z</time>
      </trkpt>
      <trkpt lat="45.624572988599539" lon="7.029782999306917">
        <ele>2901.8000000000002</ele>
        <time>2013-07-28T10:29:26Z</time>
      </trkpt>
      <trkpt lat="45.624572988599539" lon="7.029782999306917">
        <ele>2901.8000000000002</ele>
        <time>2013-07-28T10:29:26Z</time>
      </trkpt>
      <trkpt lat="45.624572988599539" lon="7.029782999306917">
        <ele>2901.8000000000002</ele>
        <time>2013-07-28T10:29:26Z</time>
      </trkpt>
    </trkseg>
  </trk>

</gpx>